Time;durP1;ratioP1;P1;durP2;ratioP2;P2;SDS_P1;SDS_P2;PMS_P1;PMS_P2;Temp;Humidity;BMP_temperature;BMP_pressure;BME280_temperature;BME280_humidity;BME280_pressure;Samples;Min_cycle;Max_cycle;Signal;HPM_P1;HPM_P2
2023/08/18 00:02:02;;;;;;;2.97;1.30;;;;;;;21.21;100.00;100967.41;5010214;28;20053;-58
2023/08/18 00:04:28;;;;;;;3.38;0.50;;;;;;;21.24;100.00;100966.91;5015180;28;20431;-56
2023/08/18 00:06:54;;;;;;;4.30;1.90;;;;;;;21.17;100.00;100963.59;5016617;28;20624;-54
2023/08/18 00:09:20;;;;;;;3.88;1.13;;;;;;;21.09;100.00;100967.53;5017376;28;20051;-56
2023/08/18 00:11:46;;;;;;;5.78;0.90;;;;;;;21.21;100.00;100962.00;5013862;28;20022;-59
2023/08/18 00:14:11;;;;;;;11.20;1.38;;;;;;;21.27;100.00;100949.41;5018327;28;20116;-59
2023/08/18 00:16:36;;;;;;;5.85;0.68;;;;;;;21.24;100.00;100949.91;5015363;28;20056;-56
2023/08/18 00:19:02;;;;;;;6.72;0.77;;;;;;;21.16;100.00;100951.16;5017147;28;20062;-57
2023/08/18 00:21:27;;;;;;;6.05;1.38;;;;;;;21.16;100.00;100961.13;5010206;28;20029;-56
2023/08/18 00:23:53;;;;;;;6.20;1.13;;;;;;;21.12;100.00;100941.97;5012932;28;20121;-57
2023/08/18 00:26:18;;;;;;;6.13;1.92;;;;;;;21.02;100.00;100953.41;5014203;28;20040;-57
2023/08/18 00:28:44;;;;;;;7.28;1.05;;;;;;;21.06;100.00;100964.50;5013644;28;20057;-58
2023/08/18 00:31:09;;;;;;;2.55;0.75;;;;;;;21.11;100.00;100968.06;5015614;28;20121;-59
2023/08/18 00:33:34;;;;;;;6.07;1.13;;;;;;;21.14;100.00;100966.75;5012397;28;20025;-57
2023/08/18 00:36:00;;;;;;;2.92;0.68;;;;;;;21.20;100.00;100967.66;5009223;28;20112;-56
2023/08/18 00:38:25;;;;;;;8.48;1.35;;;;;;;21.18;100.00;100964.41;5019465;28;20025;-59
2023/08/18 00:40:50;;;;;;;2.38;0.45;;;;;;;21.22;100.00;100957.44;5018800;28;20380;-55
2023/08/18 00:43:16;;;;;;;3.63;1.92;;;;;;;21.24;100.00;100944.50;5014640;28;20037;-56
2023/08/18 00:45:42;;;;;;;6.40;1.15;;;;;;;21.20;100.00;100943.41;5013473;28;20026;-55
2023/08/18 00:48:08;;;;;;;3.67;1.20;;;;;;;20.98;100.00;100941.47;5013737;28;20037;-57
2023/08/18 00:50:34;;;;;;;6.22;1.45;;;;;;;21.07;100.00;100953.47;5030513;28;20046;-58
2023/08/18 00:52:59;;;;;;;5.93;1.83;;;;;;;21.20;100.00;100943.41;5013442;28;20140;-56
2023/08/18 00:55:27;;;;;;;4.70;1.30;;;;;;;21.28;100.00;100945.66;5009961;28;20109;-59
2023/08/18 00:57:55;;;;;;;7.95;2.42;;;;;;;21.15;100.00;100954.94;5010841;28;20025;-58
2023/08/18 01:00:23;;;;;;;2.08;0.68;;;;;;;21.25;100.00;100954.25;5012291;28;20041;-59
2023/08/18 01:02:52;;;;;;;10.98;1.40;;;;;;;21.19;100.00;100947.97;5013430;28;20525;-57
2023/08/18 01:05:18;;;;;;;7.32;2.08;;;;;;;21.19;100.00;100945.25;5015160;28;20040;-56
2023/08/18 01:07:44;;;;;;;4.57;1.52;;;;;;;21.09;100.00;100942.44;5014958;28;20033;-56
2023/08/18 01:10:10;;;;;;;3.72;0.60;;;;;;;21.09;100.00;100937.88;5012041;28;20515;-56
2023/08/18 01:12:54;;;;;;;7.75;1.02;;;;;;;21.15;100.00;100938.75;5014068;28;20031;-53
2023/08/18 01:15:28;;;;;;;6.60;0.68;;;;;;;21.18;100.00;100940.13;5017846;28;20538;-56
2023/08/18 01:17:58;;;;;;;2.80;0.85;;;;;;;21.22;100.00;100934.00;5013054;28;20148;-58
2023/08/18 01:20:25;;;;;;;3.97;0.90;;;;;;;21.20;100.00;100927.22;5014399;28;20394;-58
2023/08/18 01:22:59;;;;;;;1.98;0.85;;;;;;;21.27;100.00;100922.44;5016517;28;20791;-56
2023/08/18 01:25:26;;;;;;;2.65;1.58;;;;;;;21.20;100.00;100925.34;5009390;28;20042;-58
2023/08/18 01:27:52;;;;;;;3.13;0.75;;;;;;;21.22;100.00;100920.50;5015363;28;20501;-58
2023/08/18 01:30:18;;;;;;;6.00;1.30;;;;;;;21.17;100.00;100925.00;5013764;28;20140;-57
2023/08/18 01:32:50;;;;;;;11.82;1.98;;;;;;;21.14;100.00;100915.53;5007600;28;20030;-54
2023/08/18 01:35:16;;;;;;;3.67;1.25;;;;;;;21.20;100.00;100914.56;5009753;28;20053;-58
2023/08/18 01:37:43;;;;;;;6.05;1.27;;;;;;;21.23;100.00;100911.34;5012626;28;20044;-59
2023/08/18 01:40:13;;;;;;;7.22;1.13;;;;;;;21.14;100.00;100907.44;5016029;28;20029;-55
2023/08/18 01:42:39;;;;;;;4.97;0.88;;;;;;;21.22;100.00;100900.78;5014295;28;20394;-57
2023/08/18 01:45:04;;;;;;;3.40;0.85;;;;;;;21.25;100.00;100903.03;5012619;28;20056;-59
2023/08/18 01:47:30;;;;;;;2.80;0.88;;;;;;;21.12;100.00;100898.81;5010582;28;20386;-59
2023/08/18 01:49:56;;;;;;;6.55;0.75;;;;;;;21.05;100.00;100893.59;5012920;28;20040;-57
2023/08/18 01:52:21;;;;;;;8.80;1.77;;;;;;;21.03;100.00;100895.72;5010032;28;20501;-56
2023/08/18 01:54:47;;;;;;;7.50;1.90;;;;;;;21.04;100.00;100891.97;5016107;28;20103;-59
2023/08/18 01:57:12;;;;;;;3.13;1.13;;;;;;;21.10;100.00;100882.88;5020638;28;20396;-58
2023/08/18 01:59:37;;;;;;;7.13;1.70;;;;;;;21.25;100.00;100881.44;5011678;28;20034;-57
2023/08/18 02:02:02;;;;;;;7.85;2.10;;;;;;;21.26;100.00;100880.38;5011689;28;20038;-56
2023/08/18 02:04:28;;;;;;;2.97;1.30;;;;;;;21.15;100.00;100882.13;5022147;28;20037;-58
2023/08/18 02:06:53;;;;;;;7.78;1.13;;;;;;;21.15;100.00;100886.72;5012560;28;20041;-55
2023/08/18 02:09:18;;;;;;;2.85;0.63;;;;;;;21.16;100.00;100885.63;5012857;28;20037;-55
2023/08/18 02:11:44;;;;;;;3.63;0.70;;;;;;;21.38;100.00;100877.53;5018377;28;20029;-57
2023/08/18 02:14:09;;;;;;;4.88;1.17;;;;;;;21.40;100.00;100876.25;5018110;28;20025;-58
2023/08/18 02:16:34;;;;;;;3.67;1.60;;;;;;;21.35;100.00;100870.78;5021800;28;20038;-60
2023/08/18 02:19:00;;;;;;;4.88;0.98;;;;;;;21.06;100.00;100873.66;5015504;28;20510;-57
2023/08/18 02:21:25;;;;;;;4.18;1.02;;;;;;;21.10;100.00;100863.19;5018598;28;20029;-57
2023/08/18 02:23:50;;;;;;;2.72;0.75;;;;;;;21.13;100.00;100870.78;5020173;28;20033;-60
2023/08/18 02:26:16;;;;;;;8.13;0.95;;;;;;;21.15;100.00;100862.44;5010770;28;20068;-56
2023/08/18 02:28:41;;;;;;;8.93;1.15;;;;;;;21.02;100.00;100867.16;5016317;28;20047;-58
2023/08/18 02:31:07;;;;;;;4.65;1.50;;;;;;;21.06;100.00;100859.38;5016466;28;20658;-59
2023/08/18 02:33:34;;;;;;;6.03;1.67;;;;;;;21.20;100.00;100862.50;5013529;28;20037;-57
2023/08/18 02:36:00;;;;;;;3.30;0.90;;;;;;;21.24;100.00;100853.63;5017858;28;20033;-54
2023/08/18 02:38:29;;;;;;;2.28;0.85;;;;;;;21.33;100.00;100856.72;5019225;28;20121;-58
2023/08/18 02:40:55;;;;;;;1.40;1.02;;;;;;;21.40;100.00;100851.97;5017139;28;20025;-56
2023/08/18 02:43:22;;;;;;;8.43;0.85;;;;;;;21.41;100.00;100842.81;5023368;28;20394;-58
2023/08/18 02:45:48;;;;;;;4.43;1.05;;;;;;;21.36;100.00;100845.41;5015220;28;20083;-59
2023/08/18 02:48:14;;;;;;;11.60;1.50;;;;;;;21.34;100.00;100848.34;5015584;28;20109;-58
2023/08/18 02:50:40;;;;;;;9.98;1.30;;;;;;;21.44;100.00;100845.00;5007957;28;20034;-57
2023/08/18 02:53:06;;;;;;;10.57;0.90;;;;;;;21.42;100.00;100844.41;5013305;28;20387;-58
2023/08/18 02:55:34;;;;;;;6.03;0.65;;;;;;;21.45;100.00;100837.72;5012310;28;20046;-58
2023/08/18 02:58:00;;;;;;;5.53;0.98;;;;;;;21.46;100.00;100826.69;5011822;28;20079;-53
2023/08/18 03:00:26;;;;;;;6.72;1.90;;;;;;;21.38;100.00;100824.44;5015660;28;20608;-56
2023/08/18 03:02:52;;;;;;;12.43;1.83;;;;;;;21.38;100.00;100821.75;5017238;28;20208;-56
2023/08/18 03:05:17;;;;;;;2.38;0.73;;;;;;;21.38;100.00;100816.34;5015952;28;20125;-56
2023/08/18 03:07:43;;;;;;;4.63;0.95;;;;;;;21.22;100.00;100801.88;5014723;28;20032;-59
2023/08/18 03:10:08;;;;;;;3.83;2.10;;;;;;;21.28;100.00;100797.34;5015939;28;20041;-55
2023/08/18 03:12:33;;;;;;;9.45;1.77;;;;;;;21.25;100.00;100795.97;5018927;28;20047;-54
2023/08/18 03:14:59;;;;;;;5.65;1.95;;;;;;;21.23;100.00;100789.19;5011579;28;20030;-57
2023/08/18 03:17:24;;;;;;;2.85;1.48;;;;;;;21.28;100.00;100784.66;5016993;28;20042;-58
2023/08/18 03:19:49;;;;;;;6.35;1.20;;;;;;;21.35;100.00;100765.59;5014286;28;20033;-57
2023/08/18 03:22:15;;;;;;;3.88;2.13;;;;;;;21.21;100.00;100772.44;5019084;28;20110;-56
2023/08/18 03:24:40;;;;;;;9.45;1.80;;;;;;;21.19;100.00;100769.19;5017326;28;20589;-58
2023/08/18 03:27:05;;;;;;;4.28;1.75;;;;;;;21.21;100.00;100762.47;5014525;28;20463;-56
2023/08/18 03:29:31;;;;;;;4.10;1.13;;;;;;;21.28;100.00;100743.41;5017729;28;20497;-58
2023/08/18 03:31:56;;;;;;;6.88;1.67;;;;;;;21.31;100.00;100729.41;5015792;28;20120;-59
2023/08/18 03:34:21;;;;;;;5.95;1.88;;;;;;;21.39;100.00;100736.25;5013496;28;20609;-58
2023/08/18 03:36:47;;;;;;;9.52;2.58;;;;;;;21.24;100.00;100735.00;5020053;28;20029;-56
2023/08/18 03:39:12;;;;;;;6.63;0.98;;;;;;;21.29;100.00;100731.53;5015932;28;20402;-59
2023/08/18 03:41:38;;;;;;;10.32;2.15;;;;;;;21.37;100.00;100736.47;5018744;28;20453;-53
2023/08/18 03:44:03;;;;;;;8.32;2.22;;;;;;;21.40;100.00;100736.00;5015404;28;20026;-57
2023/08/18 03:46:29;;;;;;;4.25;1.08;;;;;;;21.46;100.00;100758.44;5019649;28;20128;-58
2023/08/18 03:48:54;;;;;;;4.15;1.38;;;;;;;21.35;100.00;100744.81;5018030;28;20037;-55
2023/08/18 03:51:20;;;;;;;7.28;2.33;;;;;;;21.26;100.00;100735.56;5018945;28;20739;-57
2023/08/18 03:53:46;;;;;;;6.72;1.45;;;;;;;20.84;100.00;100749.69;5019195;28;20147;-58
2023/08/18 03:56:12;;;;;;;6.78;1.73;;;;;;;20.94;100.00;100754.41;5019574;28;20079;-55
2023/08/18 03:58:37;;;;;;;5.43;1.40;;;;;;;21.07;100.00;100745.09;5010938;28;20537;-56
2023/08/18 04:01:07;;;;;;;2.28;1.27;;;;;;;21.13;100.00;100752.97;5017747;28;20033;-58
2023/08/18 04:03:37;;;;;;;4.78;1.23;;;;;;;21.16;100.00;100754.34;5017178;28;20055;-58
2023/08/18 04:06:03;;;;;;;6.90;2.03;;;;;;;21.09;100.00;100751.88;5018113;28;20036;-56
2023/08/18 04:08:32;;;;;;;1.95;1.20;;;;;;;21.11;100.00;100740.81;5014079;28;20022;-56
2023/08/18 04:10:57;;;;;;;4.57;1.05;;;;;;;20.67;100.00;100739.00;5018446;28;20123;-59
2023/08/18 04:13:23;;;;;;;7.93;1.40;;;;;;;20.94;100.00;100737.41;5012570;28;20029;-60
2023/08/18 04:15:48;;;;;;;2.97;1.17;;;;;;;21.09;100.00;100738.38;5014345;28;20030;-56
2023/08/18 04:18:13;;;;;;;5.80;1.98;;;;;;;21.18;100.00;100740.63;5010966;28;20049;-58
2023/08/18 04:20:40;;;;;;;7.20;2.17;;;;;;;21.01;100.00;100746.91;5014060;28;20483;-58
2023/08/18 04:23:05;;;;;;;4.45;1.95;;;;;;;21.09;100.00;100754.56;5011241;28;20476;-57
2023/08/18 04:25:30;;;;;;;4.05;2.10;;;;;;;20.96;100.00;100746.88;5019166;28;20037;-56
2023/08/18 04:27:56;;;;;;;4.28;2.10;;;;;;;21.02;100.00;100745.84;5015711;28;20025;-58
2023/08/18 04:30:21;;;;;;;12.00;1.40;;;;;;;21.05;100.00;100742.63;5015521;28;20068;-56
2023/08/18 04:32:47;;;;;;;2.45;1.30;;;;;;;21.06;100.00;100738.88;5013279;28;20068;-59
2023/08/18 04:35:12;;;;;;;8.93;3.30;;;;;;;21.18;100.00;100735.22;5013190;28;20630;-58
2023/08/18 04:37:37;;;;;;;10.90;3.30;;;;;;;21.13;100.00;100731.41;5015046;28;20041;-54
2023/08/18 04:40:04;;;;;;;3.75;1.65;;;;;;;21.14;100.00;100726.81;5015536;28;20021;-58
2023/08/18 04:42:30;;;;;;;9.43;2.60;;;;;;;21.09;100.00;100730.28;5012048;28;20446;-58
2023/08/18 04:44:55;;;;;;;7.75;1.48;;;;;;;21.11;100.00;100721.94;5017840;28;20026;-54
2023/08/18 04:47:20;;;;;;;4.85;2.15;;;;;;;20.99;100.00;100727.50;5018136;28;20033;-54
2023/08/18 04:49:46;;;;;;;10.65;2.65;;;;;;;20.87;100.00;100721.44;5013580;28;20071;-59
2023/08/18 04:52:11;;;;;;;9.10;2.67;;;;;;;20.89;100.00;100717.41;5016002;28;20451;-57
2023/08/18 04:54:37;;;;;;;9.35;2.50;;;;;;;20.97;100.00;100709.94;5012405;28;20029;-57
2023/08/18 04:57:07;;;;;;;6.50;3.10;;;;;;;21.00;100.00;100704.84;5016558;28;20033;-57
2023/08/18 04:59:32;;;;;;;3.67;2.20;;;;;;;20.98;100.00;100701.59;5015276;28;20029;-57
2023/08/18 05:01:58;;;;;;;5.00;2.35;;;;;;;21.05;100.00;100693.31;5016408;28;20049;-58
2023/08/18 05:04:23;;;;;;;10.77;3.60;;;;;;;20.97;100.00;100685.69;5012531;28;20499;-54
2023/08/18 05:06:49;;;;;;;7.95;3.80;;;;;;;20.97;100.00;100694.59;5019342;28;20036;-58
2023/08/18 05:09:14;;;;;;;7.65;2.35;;;;;;;21.04;100.00;100697.91;5017016;28;20107;-56
2023/08/18 05:11:40;;;;;;;3.85;2.50;;;;;;;21.12;100.00;100702.00;5011143;28;20040;-56
2023/08/18 05:14:05;;;;;;;10.25;3.72;;;;;;;21.24;100.00;100701.84;5015092;28;20073;-56
2023/08/18 05:16:30;;;;;;;11.18;3.50;;;;;;;21.35;100.00;100700.88;5016863;28;20377;-57
2023/08/18 05:19:00;;;;;;;11.68;3.90;;;;;;;21.36;100.00;100705.19;5017153;28;20025;-57
2023/08/18 05:21:26;;;;;;;3.67;2.33;;;;;;;21.46;100.00;100697.19;5015031;28;20490;-57
2023/08/18 05:23:51;;;;;;;4.22;3.13;;;;;;;21.49;100.00;100696.69;5008580;28;20040;-58
2023/08/18 05:26:16;;;;;;;9.60;3.40;;;;;;;21.49;100.00;100696.69;5014261;28;20029;-58
2023/08/18 05:28:43;;;;;;;6.38;3.50;;;;;;;21.54;100.00;100696.72;5019749;28;20475;-58
2023/08/18 05:31:10;;;;;;;7.60;2.83;;;;;;;21.75;100.00;100696.84;5012748;28;20119;-55
2023/08/18 05:33:36;;;;;;;5.10;2.38;;;;;;;21.74;100.00;100687.16;5015949;28;20034;-54
2023/08/18 05:36:03;;;;;;;4.88;3.05;;;;;;;21.69;100.00;100692.50;5012370;28;20038;-59
2023/08/18 05:38:29;;;;;;;6.25;2.97;;;;;;;21.59;100.00;100689.75;5011676;28;20025;-55
2023/08/18 05:41:03;;;;;;;10.27;4.90;;;;;;;21.59;100.00;100687.03;5015679;28;20168;-55
2023/08/18 05:43:29;;;;;;;10.93;4.82;;;;;;;21.53;100.00;100681.63;5016880;28;20382;-55
2023/08/18 05:45:54;;;;;;;10.00;4.35;;;;;;;21.60;100.00;100680.56;5012290;28;20036;-59
2023/08/18 05:48:20;;;;;;;6.55;3.00;;;;;;;20.34;100.00;100687.94;5017941;28;20063;-54
2023/08/18 05:50:46;;;;;;;9.15;3.92;;;;;;;20.87;100.00;100676.44;5017532;28;20478;-57
2023/08/18 05:53:11;;;;;;;12.70;4.57;;;;;;;21.07;100.00;100673.13;5011352;28;20029;-57
2023/08/18 05:55:36;;;;;;;4.40;3.13;;;;;;;21.18;100.00;100670.50;5016897;28;20040;-57
2023/08/18 05:58:03;;;;;;;4.55;2.65;;;;;;;21.32;100.00;100669.84;5017480;28;20029;-58
2023/08/18 06:00:30;;;;;;;4.15;2.85;;;;;;;21.34;100.00;100664.16;5015106;28;20542;-58
2023/08/18 06:02:56;;;;;;;7.07;3.40;;;;;;;21.48;100.00;100667.28;5016368;28;20045;-57
2023/08/18 06:05:28;;;;;;;4.15;2.78;;;;;;;21.51;100.00;100662.16;5017896;28;20029;-58
2023/08/18 06:07:55;;;;;;;8.43;3.25;;;;;;;21.50;100.00;100662.41;5013958;28;20565;-57
2023/08/18 06:10:20;;;;;;;7.70;3.53;;;;;;;21.48;100.00;100660.00;5014044;28;20456;-55
2023/08/18 06:12:46;;;;;;;6.30;4.68;;;;;;;21.44;100.00;100661.56;5013085;28;20037;-58
2023/08/18 06:15:12;;;;;;;10.20;4.32;;;;;;;21.44;100.00;100658.88;5012842;28;20037;-59
2023/08/18 06:17:38;;;;;;;10.10;3.53;;;;;;;21.45;100.00;100660.53;5013140;28;20339;-58
2023/08/18 06:20:04;;;;;;;9.30;3.47;;;;;;;21.54;100.00;100671.63;5012520;28;20119;-58
2023/08/18 06:22:29;;;;;;;6.75;3.40;;;;;;;21.51;100.00;100662.16;5007562;28;20116;-56
2023/08/18 06:24:54;;;;;;;8.73;4.13;;;;;;;21.54;100.00;100664.34;5012465;28;20538;-57
2023/08/18 06:27:20;;;;;;;5.68;3.25;;;;;;;21.51;100.00;100675.66;5006038;28;20034;-58
2023/08/18 06:29:45;;;;;;;8.80;4.72;;;;;;;21.41;100.00;100678.28;5017423;28;20044;-60
2023/08/18 06:32:10;;;;;;;6.82;3.55;;;;;;;21.51;100.00;100681.06;5016413;28;20056;-58
2023/08/18 06:34:36;;;;;;;11.30;4.45;;;;;;;21.52;100.00;100687.25;5013401;28;20029;-58
2023/08/18 06:37:02;;;;;;;12.13;3.67;;;;;;;21.55;100.00;100684.03;5018981;28;20025;-58
2023/08/18 06:39:27;;;;;;;7.28;2.65;;;;;;;21.51;100.00;100683.75;5018078;28;20029;-58
2023/08/18 06:41:52;;;;;;;9.68;3.35;;;;;;;21.50;100.00;100698.31;5019789;28;20035;-60
2023/08/18 06:44:18;;;;;;;5.78;2.92;;;;;;;21.47;100.00;100690.72;5019653;28;20464;-59
2023/08/18 06:46:43;;;;;;;7.65;3.78;;;;;;;21.52;100.00;100693.47;5015516;28;20034;-59
2023/08/18 06:49:08;;;;;;;7.22;3.95;;;;;;;21.57;100.00;100708.88;5012525;28;20041;-59
2023/08/18 06:51:34;;;;;;;4.90;3.47;;;;;;;21.51;100.00;100709.91;5016170;28;20080;-58
2023/08/18 06:53:59;;;;;;;9.38;3.05;;;;;;;21.38;100.00;100731.91;5021217;28;20042;-58
2023/08/18 06:56:24;;;;;;;3.95;2.83;;;;;;;21.41;100.00;100745.72;5015330;28;20029;-52
2023/08/18 06:58:50;;;;;;;7.63;3.85;;;;;;;21.36;100.00;100759.13;5010573;28;20030;-58
2023/08/18 07:01:15;;;;;;;8.07;2.85;;;;;;;21.39;100.00;100774.00;5021695;28;20040;-59
2023/08/18 07:03:40;;;;;;;4.68;2.40;;;;;;;21.50;100.00;100765.75;5017817;28;20033;-58
2023/08/18 07:06:06;;;;;;;8.65;3.83;;;;;;;21.51;100.00;100770.06;5011496;28;20033;-58
2023/08/18 07:08:32;;;;;;;11.88;4.13;;;;;;;21.57;100.00;100765.53;5020513;28;20372;-58
2023/08/18 07:10:58;;;;;;;6.03;3.58;;;;;;;21.62;100.00;100762.06;5018252;28;20036;-56
2023/08/18 07:13:23;;;;;;;7.50;3.78;;;;;;;21.65;100.00;100762.34;5017413;28;20037;-59
2023/08/18 07:15:48;;;;;;;11.70;4.10;;;;;;;21.69;100.00;100757.28;5021815;28;20592;-60
2023/08/18 07:18:16;;;;;;;6.85;3.00;;;;;;;21.64;100.00;100760.75;5023786;28;20060;-62
2023/08/18 07:20:43;;;;;;;8.75;4.75;;;;;;;21.67;100.00;100754.00;5020823;28;20044;-63
2023/08/18 07:23:08;;;;;;;7.18;4.40;;;;;;;21.65;100.00;100750.75;5015033;28;20468;-64
2023/08/18 07:25:33;;;;;;;14.20;4.68;;;;;;;21.62;100.00;100745.88;5018257;28;20071;-63
2023/08/18 07:27:59;;;;;;;7.15;4.65;;;;;;;21.64;100.00;100746.44;5018220;28;20052;-63
2023/08/18 07:30:24;;;;;;;9.00;4.47;;;;;;;21.69;100.00;100751.88;5017886;28;20268;-62
2023/08/18 07:32:50;;;;;;;7.50;5.10;;;;;;;21.61;100.00;100750.47;5019200;28;20037;-63
2023/08/18 07:35:15;;;;;;;6.25;4.13;;;;;;;21.43;100.00;100754.34;5016757;28;20021;-62
2023/08/18 07:37:40;;;;;;;6.57;4.35;;;;;;;21.63;100.00;100755.59;5010091;28;21168;-62
2023/08/18 07:40:09;;;;;;;7.32;3.75;;;;;;;21.66;100.00;100763.16;5022759;28;20083;-63
2023/08/18 07:42:35;;;;;;;12.85;4.57;;;;;;;21.68;100.00;100761.84;5007714;28;20025;-64
2023/08/18 07:45:02;;;;;;;7.32;3.85;;;;;;;21.61;100.00;100761.25;5014482;28;20084;-63
2023/08/18 07:47:27;;;;;;;6.68;2.70;;;;;;;21.65;100.00;100769.63;5016949;28;20569;-63
2023/08/18 07:49:53;;;;;;;7.40;3.80;;;;;;;21.64;100.00;100776.13;5011995;28;20037;-63
2023/08/18 07:52:18;;;;;;;7.85;4.05;;;;;;;21.64;100.00;100779.63;5014312;28;20029;-63
2023/08/18 07:54:43;;;;;;;5.10;4.03;;;;;;;21.67;100.00;100778.28;5015116;28;20117;-63
2023/08/18 07:57:08;;;;;;;8.05;5.53;;;;;;;21.72;100.00;100786.44;5015694;28;20094;-63
2023/08/18 07:59:34;;;;;;;6.53;4.90;;;;;;;21.78;100.00;100790.78;5016058;28;20037;-64
2023/08/18 08:01:59;;;;;;;8.57;4.90;;;;;;;21.74;100.00;100793.19;5021257;28;20222;-63
2023/08/18 08:04:25;;;;;;;5.95;4.22;;;;;;;21.74;100.00;100792.41;5017553;28;20116;-62
2023/08/18 08:06:53;;;;;;;4.95;4.32;;;;;;;21.61;100.00;100800.88;5022590;28;20077;-66
2023/08/18 08:09:18;;;;;;;7.47;4.93;;;;;;;21.61;100.00;100801.72;5016643;28;20070;-63
2023/08/18 08:11:43;;;;;;;6.05;4.65;;;;;;;21.73;100.00;100805.03;5022556;28;20851;-63
2023/08/18 08:14:09;;;;;;;6.43;4.57;;;;;;;21.70;100.00;100808.25;5014497;28;20091;-61
2023/08/18 08:16:35;;;;;;;6.20;4.20;;;;;;;21.59;100.00;100809.25;5019858;28;20503;-64
2023/08/18 08:19:04;;;;;;;7.43;5.25;;;;;;;21.59;100.00;100811.16;5010246;28;20030;-63
2023/08/18 08:21:29;;;;;;;7.25;4.65;;;;;;;21.70;100.00;100812.84;5020150;28;20493;-64
2023/08/18 08:23:55;;;;;;;5.70;4.55;;;;;;;21.77;100.00;100808.06;5012419;28;20040;-63
2023/08/18 08:26:20;;;;;;;6.93;5.18;;;;;;;21.78;100.00;100810.50;5019851;28;20461;-64
2023/08/18 08:28:45;;;;;;;9.35;5.35;;;;;;;21.75;100.00;100816.41;5016109;28;20383;-64
2023/08/18 08:31:11;;;;;;;8.50;5.47;;;;;;;21.66;100.00;100806.34;5020288;28;20120;-64
2023/08/18 08:33:37;;;;;;;4.40;4.00;;;;;;;21.61;100.00;100808.97;5015225;28;20138;-64
2023/08/18 08:36:02;;;;;;;7.40;5.15;;;;;;;21.80;100.00;100804.84;5016734;28;20034;-64
2023/08/18 08:38:28;;;;;;;11.07;5.47;;;;;;;21.71;100.00;100809.06;5011701;28;20033;-64
2023/08/18 08:40:55;;;;;;;8.43;5.60;;;;;;;21.47;100.00;100803.19;5007456;28;20073;-64
2023/08/18 08:43:21;;;;;;;6.10;5.50;;;;;;;21.52;100.00;100798.66;5010603;28;20406;-64
2023/08/18 08:45:46;;;;;;;12.70;6.53;;;;;;;21.52;100.00;100793.28;5006272;28;20038;-63
2023/08/18 08:48:13;;;;;;;11.20;6.13;;;;;;;21.46;100.00;100788.91;5010141;28;20064;-64
2023/08/18 08:50:42;;;;;;;10.23;6.03;;;;;;;21.18;100.00;100789.16;5010002;28;20147;-62
2023/08/18 08:53:11;;;;;;;5.53;4.43;;;;;;;21.05;100.00;100793.84;5013426;28;20049;-64
2023/08/18 08:55:39;;;;;;;5.53;4.57;;;;;;;21.16;100.00;100786.69;5011227;28;20034;-63
2023/08/18 08:58:05;;;;;;;9.07;5.88;;;;;;;21.22;100.00;100791.09;5020762;28;20057;-63
2023/08/18 09:00:30;;;;;;;7.45;4.50;;;;;;;21.35;100.00;100785.28;5015897;28;20053;-63
2023/08/18 09:03:01;;;;;;;8.40;6.20;;;;;;;21.32;100.00;100783.09;5012146;28;20080;-64
2023/08/18 09:05:29;;;;;;;7.50;5.17;;;;;;;21.36;100.00;100772.59;5012915;28;20120;-63
2023/08/18 09:07:54;;;;;;;7.43;5.38;;;;;;;21.48;100.00;100775.19;5015046;28;20060;-63
2023/08/18 09:10:19;;;;;;;9.05;5.70;;;;;;;21.50;100.00;100771.16;5013210;28;20081;-64
2023/08/18 09:12:46;;;;;;;9.18;6.38;;;;;;;21.54;100.00;100766.03;5008023;28;20550;-63
2023/08/18 09:15:12;;;;;;;7.15;4.85;;;;;;;21.62;100.00;100764.75;5011951;28;20194;-63
2023/08/18 09:17:38;;;;;;;7.90;5.38;;;;;;;21.56;100.00;100770.13;5013373;28;20033;-58
2023/08/18 09:20:03;;;;;;;11.32;5.32;;;;;;;21.54;100.00;100755.25;5015275;28;20045;-63
2023/08/18 09:22:29;;;;;;;9.25;5.97;;;;;;;21.55;100.00;100754.19;5010997;28;20052;-62
2023/08/18 09:24:56;;;;;;;8.52;4.80;;;;;;;21.68;100.00;100751.03;5014770;28;20044;-64
2023/08/18 09:27:22;;;;;;;8.63;5.43;;;;;;;21.78;100.00;100739.50;5019485;28;20482;-64
2023/08/18 09:29:48;;;;;;;10.07;7.22;;;;;;;21.85;100.00;100736.59;5017790;28;20044;-64
2023/08/18 09:32:13;;;;;;;10.60;6.00;;;;;;;21.90;100.00;100733.94;5016775;28;20503;-64
2023/08/18 09:34:42;;;;;;;18.20;6.63;;;;;;;21.93;100.00;100731.53;5016812;28;20084;-64
2023/08/18 09:37:08;;;;;;;8.27;5.55;;;;;;;21.99;100.00;100719.69;5015844;28;20441;-65
2023/08/18 09:39:33;;;;;;;5.32;4.38;;;;;;;22.07;100.00;100731.06;5007278;28;20034;-65
2023/08/18 09:41:59;;;;;;;8.82;6.93;;;;;;;21.97;100.00;100723.72;5013836;28;20041;-64
2023/08/18 09:44:24;;;;;;;11.32;6.25;;;;;;;21.96;100.00;100725.59;5015744;28;20482;-65
2023/08/18 09:46:58;;;;;;;9.85;7.13;;;;;;;22.00;100.00;100724.00;5014706;28;20625;-64
2023/08/18 09:49:25;;;;;;;7.22;5.72;;;;;;;21.96;100.00;100724.78;5017277;28;20083;-64
2023/08/18 09:51:53;;;;;;;11.52;6.47;;;;;;;22.04;100.00;100721.59;5016183;28;20053;-64
2023/08/18 09:54:20;;;;;;;7.60;5.07;;;;;;;22.20;100.00;100720.66;5015904;28;20119;-64
2023/08/18 09:56:59;;;;;;;11.75;7.25;;;;;;;22.31;100.00;100724.19;5010404;28;20071;-63
2023/08/18 09:59:41;;;;;;;12.30;7.90;;;;;;;22.23;100.00;100713.91;5016445;28;20037;-63
2023/08/18 10:02:07;;;;;;;9.05;6.18;;;;;;;22.27;100.00;100704.19;5014042;28;20038;-62
2023/08/18 10:04:39;;;;;;;10.88;6.00;;;;;;;22.33;100.00;100697.75;5017852;28;20328;-64
2023/08/18 10:07:06;;;;;;;9.77;6.15;;;;;;;22.47;100.00;100697.25;5024975;28;20049;-64
2023/08/18 10:09:33;;;;;;;9.88;7.10;;;;;;;22.43;100.00;100681.56;5027857;28;20049;-63
2023/08/18 10:12:02;;;;;;;8.82;7.05;;;;;;;22.59;100.00;100673.53;5009262;28;20087;-64
2023/08/18 10:14:31;;;;;;;6.85;6.15;;;;;;;22.51;100.00;100677.56;5016992;28;20536;-64
2023/08/18 10:16:57;;;;;;;11.32;8.30;;;;;;;22.53;100.00;100678.06;5016311;28;20033;-63
2023/08/18 10:19:46;;;;;;;12.32;6.82;;;;;;;22.64;100.00;100673.53;5017531;28;20156;-63
2023/08/18 10:22:12;;;;;;;11.13;6.18;;;;;;;22.69;100.00;100668.16;5018289;28;20133;-63
2023/08/18 10:24:38;;;;;;;10.52;6.97;;;;;;;22.67;100.00;100669.50;5021190;28;20039;-63
2023/08/18 10:27:06;;;;;;;13.98;7.88;;;;;;;22.63;100.00;100661.09;5018654;28;20459;-64
2023/08/18 10:29:34;;;;;;;11.32;7.70;;;;;;;22.52;100.00;100659.44;5015778;28;20043;-63
2023/08/18 10:32:07;;;;;;;10.38;7.80;;;;;;;22.39;100.00;100655.34;5016488;28;20064;-63
2023/08/18 10:34:32;;;;;;;10.50;6.97;;;;;;;22.37;100.00;100654.81;5015079;28;20044;-65
2023/08/18 10:36:58;;;;;;;14.05;9.45;;;;;;;22.51;100.00;100655.94;5016262;28;20387;-63
2023/08/18 10:39:25;;;;;;;12.50;7.80;;;;;;;22.68;100.00;100647.59;5024010;28;20033;-65
2023/08/18 10:42:05;;;;;;;11.38;8.60;;;;;;;22.97;100.00;100641.69;5014460;28;20041;-60
2023/08/18 10:44:30;;;;;;;10.90;6.93;;;;;;;23.38;100.00;100630.88;5019366;28;20103;-65
2023/08/18 10:46:57;;;;;;;11.73;7.88;;;;;;;23.46;100.00;100617.59;5018358;28;20064;-65
2023/08/18 10:49:23;;;;;;;16.40;9.98;;;;;;;23.49;100.00;100617.06;5018021;28;20625;-64
2023/08/18 10:51:49;;;;;;;18.40;9.45;;;;;;;23.58;100.00;100608.38;5021252;28;20113;-62
2023/08/18 10:54:14;;;;;;;14.68;9.80;;;;;;;23.58;100.00;100602.97;5018579;28;20538;-59
2023/08/18 10:56:40;;;;;;;16.83;11.13;;;;;;;23.49;100.00;100600.00;5010975;28;20037;-64
2023/08/18 10:59:05;;;;;;;12.77;8.32;;;;;;;23.63;100.00;100595.63;5010762;28;20102;-62
2023/08/18 11:01:31;;;;;;;12.57;8.65;;;;;;;23.98;100.00;100585.78;5010761;28;20116;-63
2023/08/18 11:03:57;;;;;;;10.27;8.15;;;;;;;24.29;100.00;100589.16;5017994;28;20104;-60
2023/08/18 11:06:26;;;;;;;14.80;7.95;;;;;;;24.44;100.00;100568.47;5016304;28;20290;-63
2023/08/18 11:08:54;;;;;;;10.30;6.00;;;;;;;24.46;100.00;100572.53;5015987;28;20037;-59
2023/08/18 11:11:20;;;;;;;11.30;7.10;;;;;;;24.31;100.00;100556.34;5011754;28;20515;-62